createdAt,value
2018-11-22T00:00:05.381Z,0
2018-11-22T00:01:04.850Z,0
2018-11-22T00:02:05.356Z,0
2018-11-22T00:03:05.618Z,0
2018-11-22T00:04:05.613Z,0
2018-11-22T00:05:05.581Z,0
2018-11-22T00:06:05.588Z,0
2018-11-22T00:07:05.060Z,0
2018-11-22T00:08:04.811Z,0
2018-11-22T00:09:05.056Z,0
2018-11-22T00:10:05.309Z,0
2018-11-22T00:11:05.045Z,0
2018-11-22T00:12:05.269Z,0
2018-11-22T00:13:05.527Z,0
2018-11-22T00:14:05.290Z,0
2018-11-22T00:15:05.253Z,0
2018-11-22T00:16:05.497Z,0
2018-11-22T00:17:05.220Z,0
2018-11-22T00:18:05.486Z,0
2018-11-22T00:19:05.457Z,0
2018-11-22T00:20:04.935Z,0
2018-11-22T00:21:05.172Z,0
2018-11-22T00:22:05.434Z,0
2018-11-22T00:23:05.435Z,0
2018-11-22T00:24:04.890Z,0
2018-11-22T00:25:05.138Z,0
2018-11-22T00:26:05.169Z,0
2018-11-22T00:27:05.411Z,0
2018-11-22T00:28:05.362Z,0
2018-11-22T00:29:05.118Z,0
2018-11-22T00:30:05.091Z,0
2018-11-22T00:31:05.110Z,0
2018-11-22T00:32:05.800Z,0
2018-11-22T00:33:05.063Z,0
2018-11-22T00:34:05.309Z,0
2018-11-22T00:35:05.313Z,0
2018-11-22T00:36:05.031Z,0
2018-11-22T00:37:04.772Z,0
2018-11-22T00:38:05.315Z,0
2018-11-22T00:39:04.996Z,0
2018-11-22T00:40:04.738Z,0
2018-11-22T00:41:04.988Z,0
2018-11-22T00:42:04.973Z,0
2018-11-22T00:43:05.259Z,0
2018-11-22T00:44:04.952Z,0
2018-11-22T00:45:05.200Z,0
2018-11-22T00:46:05.202Z,0
2018-11-22T00:47:04.693Z,0
2018-11-22T00:48:04.667Z,0
2018-11-22T00:49:04.671Z,0
2018-11-22T00:50:05.449Z,0
2018-11-22T00:51:04.386Z,0
2018-11-22T00:52:05.142Z,0
2018-11-22T00:53:04.869Z,0
2018-11-22T00:54:05.108Z,0
2018-11-22T00:55:04.853Z,0
2018-11-22T00:56:05.091Z,0
2018-11-22T00:57:05.108Z,0
2018-11-22T00:58:05.069Z,0
2018-11-22T00:59:04.791Z,0
2018-11-22T01:00:04.566Z,0
2018-11-22T01:01:05.025Z,0
2018-11-22T01:02:04.774Z,0
2018-11-22T01:03:04.764Z,0
2018-11-22T01:04:04.996Z,0
2018-11-22T01:05:04.773Z,0
2018-11-22T01:06:04.762Z,0
2018-11-22T01:07:04.481Z,0
2018-11-22T01:08:04.972Z,0
2018-11-22T01:09:04.985Z,0
2018-11-22T01:10:04.713Z,0
2018-11-22T01:11:04.433Z,0
2018-11-22T01:12:04.482Z,0
2018-11-22T01:13:04.934Z,0
2018-11-22T01:14:04.668Z,0
2018-11-22T01:15:04.963Z,0
2018-11-22T01:16:04.661Z,0
2018-11-22T01:17:04.126Z,0
2018-11-22T01:18:04.647Z,0
2018-11-22T01:19:04.897Z,0
2018-11-22T01:20:04.902Z,0
2018-11-22T01:21:04.599Z,0
2018-11-22T01:22:04.848Z,0
2018-11-22T01:23:04.840Z,0
2018-11-22T01:24:04.834Z,0
2018-11-22T01:25:04.335Z,0
2018-11-22T01:26:04.292Z,0
2018-11-22T01:27:04.272Z,0
2018-11-22T01:28:04.014Z,0
2018-11-22T01:29:04.535Z,0
2018-11-22T01:30:04.831Z,0
2018-11-22T01:31:04.254Z,0
2018-11-22T01:32:04.784Z,0
2018-11-22T01:33:03.972Z,0
2018-11-22T01:34:04.463Z,0
2018-11-22T01:35:04.500Z,0
2018-11-22T01:36:04.452Z,0
2018-11-22T01:37:04.437Z,0
2018-11-22T01:38:04.185Z,0
2018-11-22T01:39:04.428Z,0
2018-11-22T01:40:04.596Z,0
2018-11-22T01:41:04.151Z,0
2018-11-22T01:42:04.143Z,0
2018-11-22T01:43:04.388Z,0
2018-11-22T01:44:04.628Z,0
2018-11-22T01:45:04.634Z,0
2018-11-22T01:46:04.456Z,0
2018-11-22T01:47:04.160Z,0
2018-11-22T01:48:04.586Z,0
2018-11-22T01:49:04.358Z,0
2018-11-22T01:50:04.773Z,0
2018-11-22T01:51:04.565Z,0
2018-11-22T01:52:04.297Z,0
2018-11-22T01:53:04.040Z,0
2018-11-22T01:54:04.554Z,0
2018-11-22T01:55:04.029Z,0
2018-11-22T01:56:04.071Z,0
2018-11-22T01:57:03.764Z,0
2018-11-22T01:58:04.244Z,0
2018-11-22T01:59:04.230Z,0
2018-11-22T02:00:03.975Z,0
2018-11-22T02:01:04.207Z,0
2018-11-22T02:02:03.962Z,0
2018-11-22T02:03:03.699Z,0
2018-11-22T02:04:04.192Z,0
2018-11-22T02:05:04.182Z,0
2018-11-22T02:06:04.179Z,0
2018-11-22T02:07:03.921Z,0
2018-11-22T02:08:03.643Z,0
2018-11-22T02:09:03.879Z,0
2018-11-22T02:10:03.877Z,0
2018-11-22T02:11:04.143Z,0
2018-11-22T02:12:04.119Z,0
2018-11-22T02:13:03.846Z,0
2018-11-22T02:14:04.108Z,0
2018-11-22T02:15:04.088Z,0
2018-11-22T02:16:03.850Z,0
2018-11-22T02:17:04.102Z,0
2018-11-22T02:18:04.038Z,0
2018-11-22T02:19:04.302Z,0
2018-11-22T02:20:04.832Z,0
2018-11-22T02:21:04.262Z,0
2018-11-22T02:22:04.016Z,0
2018-11-22T02:23:04.261Z,0
2018-11-22T02:24:04.011Z,0
2018-11-22T02:25:04.224Z,0
2018-11-22T02:26:04.220Z,0
2018-11-22T02:27:03.474Z,0
2018-11-22T02:28:03.971Z,0
2018-11-22T02:29:03.943Z,0
2018-11-22T02:30:03.951Z,0
2018-11-22T02:31:04.176Z,0
2018-11-22T02:32:03.698Z,0
2018-11-22T02:33:03.646Z,0
2018-11-22T02:34:03.883Z,0
2018-11-22T02:35:04.136Z,0
2018-11-22T02:36:04.131Z,0
2018-11-22T02:37:03.630Z,0
2018-11-22T02:38:03.872Z,0
2018-11-22T02:39:03.343Z,0
2018-11-22T02:40:04.090Z,0
2018-11-22T02:41:04.083Z,0
2018-11-22T02:42:03.814Z,0
2018-11-22T02:43:03.609Z,0
2018-11-22T02:44:04.049Z,0
2018-11-22T02:45:04.053Z,0
2018-11-22T02:46:03.822Z,0
2018-11-22T02:47:04.022Z,0
2018-11-22T02:48:03.494Z,0
2018-11-22T02:49:03.753Z,0
2018-11-22T02:50:05.826Z,0
2018-11-22T02:51:03.737Z,0
2018-11-22T02:52:03.737Z,0
2018-11-22T02:53:03.715Z,0
2018-11-22T02:54:03.704Z,0
2018-11-22T02:55:03.179Z,0
2018-11-22T02:56:03.437Z,0
2018-11-22T02:57:03.217Z,0
2018-11-22T02:58:03.928Z,0
2018-11-22T02:59:03.906Z,0
2018-11-22T03:00:03.646Z,0
2018-11-22T03:01:03.630Z,0
2018-11-22T03:02:03.386Z,0
2018-11-22T03:03:03.610Z,0
2018-11-22T03:04:03.664Z,0
2018-11-22T03:05:03.337Z,0
2018-11-22T03:06:03.325Z,0
2018-11-22T03:07:03.853Z,0
2018-11-22T03:08:03.565Z,0
2018-11-22T03:09:03.812Z,0
2018-11-22T03:10:03.299Z,0
2018-11-22T03:11:03.804Z,0
2018-11-22T03:12:03.780Z,0
2018-11-22T03:13:03.515Z,0
2018-11-22T03:14:03.496Z,0
2018-11-22T03:15:03.818Z,0
2018-11-22T03:16:03.738Z,0
2018-11-22T03:17:03.711Z,0
2018-11-22T03:18:03.472Z,0
2018-11-22T03:19:03.454Z,0
2018-11-22T03:20:03.779Z,0
2018-11-22T03:21:03.764Z,0
2018-11-22T03:22:02.919Z,0
2018-11-22T03:23:03.418Z,0
2018-11-22T03:24:03.659Z,0
2018-11-22T03:25:03.424Z,0
2018-11-22T03:26:03.635Z,0
2018-11-22T03:27:03.387Z,0
2018-11-22T03:28:03.632Z,0
2018-11-22T03:29:03.617Z,0
2018-11-22T03:30:03.140Z,0
2018-11-22T03:31:03.605Z,0
2018-11-22T03:32:03.621Z,0
2018-11-22T03:33:03.569Z,0
2018-11-22T03:34:03.324Z,0
2018-11-22T03:35:03.562Z,0
2018-11-22T03:36:03.579Z,0
2018-11-22T03:37:03.561Z,0
2018-11-22T03:38:03.051Z,0
2018-11-22T03:39:03.561Z,0
2018-11-22T03:40:03.290Z,0
2018-11-22T03:41:03.248Z,0
2018-11-22T03:42:02.991Z,0
2018-11-22T03:43:03.464Z,0
2018-11-22T03:44:03.242Z,0
2018-11-22T03:45:02.939Z,0
2018-11-22T03:46:03.467Z,0
2018-11-22T03:47:03.432Z,0
2018-11-22T03:48:03.196Z,0
2018-11-22T03:49:03.437Z,0
2018-11-22T03:50:02.902Z,0
2018-11-22T03:51:03.429Z,0
2018-11-22T03:52:03.137Z,0
2018-11-22T03:53:02.867Z,0
2018-11-22T03:54:03.375Z,0
2018-11-22T03:55:03.120Z,0
2018-11-22T03:56:03.359Z,0
2018-11-22T03:57:03.121Z,0
2018-11-22T03:58:02.832Z,0
2018-11-22T03:59:03.107Z,0
2018-11-22T04:00:03.336Z,0
2018-11-22T04:01:03.046Z,0
2018-11-22T04:02:03.052Z,0
2018-11-22T04:03:03.318Z,0
2018-11-22T04:04:02.498Z,0
2018-11-22T04:05:02.752Z,0
2018-11-22T04:06:03.260Z,0
2018-11-22T04:07:02.740Z,0
2018-11-22T04:08:02.996Z,0
2018-11-22T04:09:03.266Z,0
2018-11-22T04:10:03.277Z,0
2018-11-22T04:11:03.201Z,0
2018-11-22T04:12:02.952Z,0
2018-11-22T04:13:03.109Z,0
2018-11-22T04:14:03.192Z,0
2018-11-22T04:15:02.800Z,0
2018-11-22T04:16:03.045Z,0
2018-11-22T04:17:02.890Z,0
2018-11-22T04:18:02.885Z,0
2018-11-22T04:19:02.858Z,0
2018-11-22T04:20:03.123Z,0
2018-11-22T04:21:03.808Z,0
2018-11-22T04:22:02.854Z,0
2018-11-22T04:23:03.076Z,0
2018-11-22T04:24:03.128Z,0
2018-11-22T04:25:02.845Z,0
2018-11-22T04:26:02.817Z,0
2018-11-22T04:27:03.567Z,0
2018-11-22T04:28:03.071Z,0
2018-11-22T04:29:03.029Z,0
2018-11-22T04:30:03.037Z,0
2018-11-22T04:31:03.018Z,0
2018-11-22T04:32:03.006Z,0
2018-11-22T04:33:03.006Z,0
2018-11-22T04:34:02.973Z,0
2018-11-22T04:35:02.729Z,0
2018-11-22T04:36:02.464Z,0
2018-11-22T04:37:02.442Z,0
2018-11-22T04:38:02.714Z,0
2018-11-22T04:39:02.915Z,0
2018-11-22T04:40:02.658Z,0
2018-11-22T04:41:02.923Z,0
2018-11-22T04:42:02.650Z,0
2018-11-22T04:43:02.888Z,0
2018-11-22T04:44:02.873Z,0
2018-11-22T04:45:02.900Z,0
2018-11-22T04:46:02.862Z,0
2018-11-22T04:47:02.602Z,0
2018-11-22T04:48:02.851Z,0
2018-11-22T04:49:02.851Z,0
2018-11-22T04:50:02.833Z,0
2018-11-22T04:51:02.809Z,0
2018-11-22T04:52:05.760Z,0
2018-11-22T04:53:02.564Z,0
2018-11-22T04:54:02.531Z,0
2018-11-22T04:55:02.530Z,0
2018-11-22T04:56:02.766Z,0
2018-11-22T04:57:02.258Z,0
2018-11-22T04:58:07.330Z,0
2018-11-22T04:59:02.510Z,0
2018-11-22T05:00:02.515Z,0
2018-11-22T05:01:02.211Z,0
2018-11-22T05:02:02.890Z,0
2018-11-22T05:03:02.689Z,0
2018-11-22T05:04:02.688Z,0
2018-11-22T05:05:02.669Z,0
2018-11-22T05:06:02.701Z,0
2018-11-22T05:07:02.150Z,0
2018-11-22T05:08:02.679Z,0
2018-11-22T05:09:02.639Z,0
2018-11-22T05:10:02.624Z,0
2018-11-22T05:11:02.127Z,0
2018-11-22T05:12:02.380Z,0
2018-11-22T05:13:02.661Z,0
2018-11-22T05:14:02.339Z,0
2018-11-22T05:15:02.080Z,0
2018-11-22T05:16:02.573Z,0
2018-11-22T05:17:02.320Z,0
2018-11-22T05:18:02.038Z,0
2018-11-22T05:19:02.573Z,0
2018-11-22T05:20:02.027Z,0
2018-11-22T05:21:02.527Z,0
2018-11-22T05:22:02.416Z,0
2018-11-22T05:23:02.258Z,0
2018-11-22T05:24:02.522Z,0
2018-11-22T05:25:02.519Z,0
2018-11-22T05:26:02.596Z,0
2018-11-22T05:27:03.290Z,0
2018-11-22T05:28:02.218Z,0
2018-11-22T05:29:02.463Z,0
2018-11-22T05:30:01.922Z,0
2018-11-22T05:31:02.425Z,0
2018-11-22T05:32:02.424Z,0
2018-11-22T05:33:02.407Z,0
2018-11-22T05:34:02.143Z,0
2018-11-22T05:35:02.139Z,0
2018-11-22T05:36:02.141Z,0
2018-11-22T05:37:01.863Z,0
2018-11-22T05:38:02.344Z,0
2018-11-22T05:39:01.840Z,0
2018-11-22T05:40:01.837Z,0
2018-11-22T05:41:02.350Z,0
2018-11-22T05:42:02.314Z,0
2018-11-22T05:43:02.050Z,0
2018-11-22T05:44:02.049Z,0
2018-11-22T05:45:02.037Z,0
2018-11-22T05:46:02.061Z,0
2018-11-22T05:47:07.269Z,0
2018-11-22T05:48:02.010Z,0
2018-11-22T05:49:02.283Z,0
2018-11-22T05:50:02.256Z,0
2018-11-22T05:51:02.000Z,0
2018-11-22T05:52:01.973Z,0
2018-11-22T05:53:01.971Z,0
2018-11-22T05:54:01.948Z,0
2018-11-22T05:55:02.256Z,0
2018-11-22T05:56:02.203Z,0
2018-11-22T05:57:01.941Z,0
2018-11-22T05:58:01.432Z,0
2018-11-22T05:59:01.649Z,0
2018-11-22T06:00:01.904Z,0
2018-11-22T06:01:02.151Z,0
2018-11-22T06:02:01.884Z,0
2018-11-22T06:03:02.122Z,0
2018-11-22T06:04:01.863Z,0
2018-11-22T06:05:01.653Z,0
2018-11-22T06:06:02.103Z,0
2018-11-22T06:07:01.855Z,0
2018-11-22T06:08:02.100Z,0
2018-11-22T06:09:01.837Z,0
2018-11-22T06:10:01.808Z,0
2018-11-22T06:11:02.052Z,0
2018-11-22T06:12:02.039Z,0
2018-11-22T06:13:02.016Z,0
2018-11-22T06:14:02.014Z,0
2018-11-22T06:15:01.505Z,0
2018-11-22T06:16:02.053Z,0
2018-11-22T06:17:01.750Z,0
2018-11-22T06:18:01.743Z,0
2018-11-22T06:19:01.737Z,0
2018-11-22T06:20:01.451Z,0
2018-11-22T06:21:01.479Z,0
2018-11-22T06:22:01.986Z,0
2018-11-22T06:23:02.530Z,0
2018-11-22T06:24:01.703Z,0
2018-11-22T06:25:08.441Z,0
2018-11-22T06:26:01.684Z,0
2018-11-22T06:27:01.659Z,0
2018-11-22T06:28:01.932Z,0
2018-11-22T06:29:01.883Z,0
2018-11-22T06:30:01.633Z,0
2018-11-22T06:31:06.269Z,0
2018-11-22T06:32:01.594Z,0
2018-11-22T06:33:01.897Z,0
2018-11-22T06:34:01.906Z,0
2018-11-22T06:35:01.687Z,0
2018-11-22T06:36:01.816Z,0
2018-11-22T06:37:01.278Z,0
2018-11-22T06:38:01.790Z,0
2018-11-22T06:39:01.005Z,0
2018-11-22T06:40:01.862Z,0
2018-11-22T06:41:01.772Z,0
2018-11-22T06:42:01.507Z,0
2018-11-22T06:43:02.292Z,0
2018-11-22T06:44:01.732Z,5
2018-11-22T06:45:01.464Z,5
2018-11-22T06:46:01.709Z,5
2018-11-22T06:47:01.442Z,5
2018-11-22T06:48:01.188Z,5
2018-11-22T06:49:01.189Z,5
2018-11-22T06:50:01.408Z,5
2018-11-22T06:51:05.358Z,5
2018-11-22T06:52:01.408Z,5
2018-11-22T06:53:01.513Z,5
2018-11-22T06:54:01.392Z,10
2018-11-22T06:55:02.264Z,10
2018-11-22T06:56:01.369Z,10
2018-11-22T06:57:00.611Z,10
2018-11-22T06:58:01.601Z,10
2018-11-22T06:59:01.323Z,10
2018-11-22T07:00:01.558Z,10
2018-11-22T07:01:01.563Z,10
2018-11-22T07:02:01.079Z,15
2018-11-22T07:03:01.020Z,15
2018-11-22T07:04:01.538Z,15
2018-11-22T07:05:01.262Z,15
2018-11-22T07:06:01.513Z,15
2018-11-22T07:07:01.009Z,15
2018-11-22T07:08:00.726Z,20
2018-11-22T07:09:01.507Z,20
2018-11-22T07:10:00.968Z,20
2018-11-22T07:11:01.203Z,20
2018-11-22T07:12:01.193Z,25
2018-11-22T07:13:01.451Z,25
2018-11-22T07:14:01.441Z,25
2018-11-22T07:15:01.191Z,30
2018-11-22T07:16:01.169Z,30
2018-11-22T07:17:00.910Z,30
2018-11-22T07:18:01.148Z,30
2018-11-22T07:19:01.136Z,35
2018-11-22T07:20:01.139Z,35
2018-11-22T07:21:01.141Z,35
2018-11-22T07:22:01.399Z,35
2018-11-22T07:23:01.148Z,35
2018-11-22T07:24:00.310Z,35
2018-11-22T07:25:01.376Z,35
2018-11-22T07:26:01.329Z,35
2018-11-22T07:27:01.081Z,35
2018-11-22T07:28:01.303Z,35
2018-11-22T07:29:01.031Z,35
2018-11-22T07:30:01.026Z,35
2018-11-22T07:31:01.286Z,35
2018-11-22T07:32:01.028Z,40
2018-11-22T07:33:00.999Z,40
2018-11-22T07:34:01.006Z,40
2018-11-22T07:35:01.252Z,40
2018-11-22T07:36:00.734Z,40
2018-11-22T07:37:00.957Z,40
2018-11-22T07:38:00.983Z,40
2018-11-22T07:39:00.944Z,40
2018-11-22T07:40:01.201Z,45
2018-11-22T07:41:00.668Z,45
2018-11-22T07:42:00.950Z,45
2018-11-22T07:43:00.906Z,45
2018-11-22T07:44:01.244Z,45
2018-11-22T07:45:00.383Z,45
2018-11-22T07:46:00.888Z,45
2018-11-22T07:47:01.132Z,45
2018-11-22T07:48:00.958Z,50
2018-11-22T07:49:00.856Z,50
2018-11-22T07:50:00.853Z,50
2018-11-22T07:51:00.871Z,50
2018-11-22T07:52:01.164Z,55
2018-11-22T07:53:03.481Z,60
2018-11-22T07:54:01.091Z,60
2018-11-22T07:55:00.858Z,65
2018-11-22T07:56:00.313Z,75
2018-11-22T07:57:01.070Z,75
2018-11-22T07:58:01.161Z,75
2018-11-22T07:59:00.555Z,80
2018-11-22T08:00:00.931Z,80
2018-11-22T08:01:00.767Z,85
2018-11-22T08:02:01.023Z,85
2018-11-22T08:03:00.495Z,85
2018-11-22T08:04:00.495Z,90
2018-11-22T08:05:01.028Z,90
2018-11-22T08:06:00.886Z,90
2018-11-22T08:07:00.727Z,90
2018-11-22T08:08:00.723Z,90
2018-11-22T08:09:00.450Z,95
2018-11-22T08:10:00.958Z,95
2018-11-22T08:11:00.169Z,100
2018-11-22T08:12:00.931Z,100
2018-11-22T08:13:00.696Z,100
2018-11-22T08:14:00.628Z,105
2018-11-22T08:15:00.644Z,110
2018-11-22T08:16:00.366Z,115
2018-11-22T08:17:00.636Z,120
2018-11-22T08:18:00.620Z,125
2018-11-22T08:19:00.100Z,125
2018-11-22T08:20:00.895Z,125
2018-11-22T08:21:07.027Z,125
2018-11-22T08:22:00.870Z,125
2018-11-22T08:23:00.834Z,130
2018-11-22T08:24:02.171Z,130
2018-11-22T08:25:01.034Z,130
2018-11-22T08:26:00.833Z,130
2018-11-22T08:27:00.325Z,140
2018-11-22T08:28:00.836Z,135
2018-11-22T08:29:00.537Z,135
2018-11-22T08:30:00.780Z,140
2018-11-22T08:31:00.806Z,140
2018-11-22T08:32:00.542Z,150
2018-11-22T08:33:02.260Z,145
2018-11-22T08:34:00.508Z,145
2018-11-22T08:35:00.489Z,150
2018-11-22T08:36:00.489Z,150
2018-11-22T08:37:00.465Z,150
2018-11-22T08:38:00.505Z,150
2018-11-22T08:39:00.235Z,150
2018-11-22T08:40:00.712Z,150
2018-11-22T08:41:00.697Z,150
2018-11-22T08:42:00.167Z,140
2018-11-22T08:43:04.700Z,140
2018-11-22T08:44:00.153Z,135
2018-11-22T08:45:00.675Z,130
2018-11-22T08:46:00.162Z,130
2018-11-22T08:47:00.647Z,130
2018-11-22T08:48:01.270Z,130
2018-11-22T08:49:00.658Z,130
2018-11-22T08:50:00.348Z,130
2018-11-22T08:51:00.383Z,130
2018-11-22T08:52:00.640Z,130
2018-11-22T08:53:00.597Z,130
2018-11-22T08:54:00.659Z,130
2018-11-22T08:55:00.601Z,125
2018-11-22T08:56:00.065Z,125
2018-11-22T08:57:00.080Z,120
2018-11-22T08:58:00.399Z,120
2018-11-22T08:59:00.778Z,120
2018-11-22T09:00:00.363Z,120
2018-11-22T09:01:00.559Z,120
2018-11-22T09:02:00.314Z,120
2018-11-22T09:03:00.278Z,115
2018-11-22T09:04:00.532Z,115
2018-11-22T09:05:00.355Z,115
2018-11-22T09:06:00.638Z,115
2018-11-22T09:07:00.529Z,115
2018-11-22T09:08:00.267Z,115
2018-11-22T09:09:00.475Z,115
2018-11-22T09:10:04.961Z,115
2018-11-22T09:11:00.454Z,120
2018-11-22T09:12:00.460Z,120
2018-11-22T09:13:00.211Z,115
2018-11-22T09:14:00.433Z,115
2018-11-22T09:15:00.219Z,120
2018-11-22T09:16:00.160Z,125
2018-11-22T09:16:59.936Z,120
2018-11-22T09:18:00.165Z,120
2018-11-22T09:19:00.144Z,120
2018-11-22T09:20:00.135Z,115
2018-11-22T09:21:00.412Z,115
2018-11-22T09:22:00.139Z,115
2018-11-22T09:23:00.113Z,115
2018-11-22T09:24:02.211Z,115
2018-11-22T09:25:00.345Z,135
2018-11-22T09:26:00.125Z,125
2018-11-22T09:27:00.088Z,120
2018-11-22T09:28:00.075Z,125
2018-11-22T09:29:00.343Z,130
2018-11-22T09:30:00.337Z,130
2018-11-22T09:31:00.048Z,130
2018-11-22T09:32:00.975Z,125
2018-11-22T09:33:00.305Z,125
2018-11-22T09:34:00.347Z,150
2018-11-22T09:35:00.281Z,140
2018-11-22T09:36:00.041Z,130
2018-11-22T09:36:59.999Z,140
2018-11-22T09:38:00.250Z,150
2018-11-22T09:39:00.245Z,150
2018-11-22T09:40:00.240Z,150
2018-11-22T09:40:59.987Z,145
2018-11-22T09:42:00.009Z,150
2018-11-22T09:42:59.741Z,160
2018-11-22T09:43:59.943Z,160
2018-11-22T09:45:00.172Z,160
2018-11-22T09:45:59.941Z,155
2018-11-22T09:46:59.910Z,145
2018-11-22T09:47:59.932Z,155
2018-11-22T09:49:00.432Z,165
2018-11-22T09:50:00.137Z,165
2018-11-22T09:50:59.697Z,160
2018-11-22T09:51:59.890Z,160
2018-11-22T09:52:59.420Z,165
2018-11-22T09:53:59.354Z,165
2018-11-22T09:55:00.372Z,165
2018-11-22T09:56:00.097Z,165
2018-11-22T09:56:59.099Z,160
2018-11-22T09:57:59.374Z,165
2018-11-22T09:58:59.740Z,165
2018-11-22T09:59:59.878Z,165
2018-11-22T10:00:59.822Z,165
2018-11-22T10:02:00.060Z,165
2018-11-22T10:03:00.045Z,165
2018-11-22T10:04:00.039Z,165
2018-11-22T10:05:01.546Z,165
2018-11-22T10:06:00.884Z,165
2018-11-22T10:07:00.048Z,165
2018-11-22T10:08:00.024Z,165
2018-11-22T10:09:00.042Z,165
2018-11-22T10:09:59.998Z,160
2018-11-22T10:10:59.988Z,160
2018-11-22T10:11:59.998Z,160
2018-11-22T10:12:59.750Z,160
2018-11-22T10:13:59.730Z,160
2018-11-22T10:14:59.959Z,160
2018-11-22T10:15:59.484Z,160
2018-11-22T10:17:00.249Z,160
2018-11-22T10:17:59.930Z,160
2018-11-22T10:18:59.702Z,160
2018-11-22T10:19:59.933Z,160
2018-11-22T10:20:59.456Z,160
2018-11-22T10:21:59.190Z,160
2018-11-22T10:22:59.907Z,160
2018-11-22T10:24:00.514Z,160
2018-11-22T10:25:01.553Z,160
2018-11-22T10:25:59.896Z,160
2018-11-22T10:26:59.415Z,160
2018-11-22T10:27:59.626Z,160
2018-11-22T10:28:59.888Z,160
2018-11-22T10:29:59.945Z,160
2018-11-22T10:30:59.843Z,160
2018-11-22T10:31:59.970Z,160
2018-11-22T10:32:59.863Z,160
2018-11-22T10:33:59.582Z,160
2018-11-22T10:34:59.813Z,160
2018-11-22T10:35:59.820Z,160
2018-11-22T10:36:59.816Z,160
2018-11-22T10:38:00.396Z,160
2018-11-22T10:38:59.821Z,160
2018-11-22T10:39:59.845Z,155
2018-11-22T10:40:59.569Z,155
2018-11-22T10:41:59.528Z,155
2018-11-22T10:42:59.572Z,155
2018-11-22T10:43:59.532Z,155
2018-11-22T10:44:59.751Z,155
2018-11-22T10:45:59.517Z,155
2018-11-22T10:46:59.241Z,155
2018-11-22T10:47:59.478Z,155
2018-11-22T10:48:59.476Z,155
2018-11-22T10:50:00.753Z,155
2018-11-22T10:50:59.707Z,155
2018-11-22T10:51:59.484Z,155
2018-11-22T10:52:59.459Z,155
2018-11-22T10:53:59.200Z,155
2018-11-22T10:55:02.655Z,155
2018-11-22T10:55:59.735Z,155
2018-11-22T10:56:59.688Z,155
2018-11-22T10:58:03.539Z,155
2018-11-22T10:58:59.387Z,155
2018-11-22T10:59:59.622Z,155
2018-11-22T11:00:59.414Z,155
2018-11-22T11:01:59.375Z,155
2018-11-22T11:02:59.594Z,155
2018-11-22T11:03:59.353Z,155
2018-11-22T11:04:59.349Z,155
2018-11-22T11:05:59.093Z,155
2018-11-22T11:06:59.316Z,155
2018-11-22T11:07:59.391Z,155
2018-11-22T11:08:59.591Z,150
2018-11-22T11:09:59.341Z,150
2018-11-22T11:10:59.350Z,150
2018-11-22T11:11:59.320Z,150
2018-11-22T11:12:59.568Z,150
2018-11-22T11:13:59.544Z,150
2018-11-22T11:14:59.698Z,150
2018-11-22T11:15:59.556Z,150
2018-11-22T11:16:59.306Z,150
2018-11-22T11:17:59.262Z,150
2018-11-22T11:18:59.510Z,150
2018-11-22T11:19:59.523Z,150
2018-11-22T11:20:59.245Z,150
2018-11-22T11:21:59.306Z,150
2018-11-22T11:22:59.493Z,150
2018-11-22T11:23:59.488Z,150
2018-11-22T11:24:59.606Z,150
2018-11-22T11:25:59.389Z,150
2018-11-22T11:26:59.271Z,150
2018-11-22T11:27:59.208Z,150
2018-11-22T11:28:59.193Z,150
2018-11-22T11:29:59.176Z,150
2018-11-22T11:30:58.679Z,150
2018-11-22T11:31:59.471Z,150
2018-11-22T11:32:59.395Z,150
2018-11-22T11:33:59.404Z,145
2018-11-22T11:34:59.119Z,145
2018-11-22T11:35:59.381Z,145
2018-11-22T11:36:58.878Z,145
2018-11-22T11:37:58.865Z,145
2018-11-22T11:38:59.447Z,145
2018-11-22T11:40:05.248Z,145
2018-11-22T11:40:58.850Z,145
2018-11-22T11:41:59.096Z,145
2018-11-22T11:42:59.361Z,145
2018-11-22T11:43:58.852Z,145
2018-11-22T11:44:58.838Z,145
2018-11-22T11:45:58.810Z,145
2018-11-22T11:46:58.805Z,145
2018-11-22T11:47:59.305Z,145
2018-11-22T11:48:58.556Z,145
2018-11-22T11:49:59.294Z,145
2018-11-22T11:50:59.300Z,145
2018-11-22T11:51:59.285Z,145
2018-11-22T11:52:59.037Z,145
2018-11-22T11:53:58.781Z,145
2018-11-22T11:54:59.030Z,145
2018-11-22T11:55:59.271Z,145
2018-11-22T11:56:59.006Z,145
2018-11-22T11:57:59.287Z,145
2018-11-22T11:58:59.242Z,140
2018-11-22T11:59:58.734Z,140
2018-11-22T12:00:59.228Z,140
2018-11-22T12:01:59.205Z,140
2018-11-22T12:02:58.969Z,140
2018-11-22T12:03:58.942Z,140
2018-11-22T12:04:59.201Z,140
2018-11-22T12:05:59.182Z,140
2018-11-22T12:06:59.185Z,140
2018-11-22T12:07:58.915Z,140
2018-11-22T12:08:58.960Z,140
2018-11-22T12:10:05.632Z,140
2018-11-22T12:10:58.976Z,140
2018-11-22T12:11:58.922Z,140
2018-11-22T12:12:58.926Z,140
2018-11-22T12:13:59.138Z,140
2018-11-22T12:14:58.883Z,140
2018-11-22T12:15:58.333Z,140
2018-11-22T12:16:58.652Z,140
2018-11-22T12:17:58.860Z,140
2018-11-22T12:18:59.140Z,140
2018-11-22T12:19:59.462Z,140
2018-11-22T12:20:59.126Z,140
2018-11-22T12:21:59.097Z,140
2018-11-22T12:22:58.841Z,140
2018-11-22T12:23:59.081Z,140
2018-11-22T12:24:59.076Z,140
2018-11-22T12:25:59.769Z,140
2018-11-22T12:26:59.063Z,140
2018-11-22T12:27:58.577Z,140
2018-11-22T12:28:58.800Z,140
2018-11-22T12:29:59.047Z,135
2018-11-22T12:31:06.075Z,135
2018-11-22T12:31:59.027Z,135
2018-11-22T12:32:59.033Z,135
2018-11-22T12:33:59.031Z,135
2018-11-22T12:34:58.770Z,135
2018-11-22T12:35:58.519Z,135
2018-11-22T12:36:59.006Z,135
2018-11-22T12:37:58.998Z,135
2018-11-22T12:38:58.970Z,135
2018-11-22T12:39:58.736Z,135
2018-11-22T12:40:58.721Z,130
2018-11-22T12:41:58.707Z,130
2018-11-22T12:42:59.013Z,130
2018-11-22T12:43:58.957Z,130
2018-11-22T12:44:58.704Z,130
2018-11-22T12:45:58.458Z,130
2018-11-22T12:46:58.942Z,130
2018-11-22T12:47:58.471Z,130
2018-11-22T12:48:58.921Z,130
2018-11-22T12:49:59.354Z,130
2018-11-22T12:50:58.176Z,125
2018-11-22T12:51:58.924Z,125
2018-11-22T12:52:58.915Z,125
2018-11-22T12:53:58.664Z,125
2018-11-22T12:54:58.643Z,125
2018-11-22T12:55:58.902Z,125
2018-11-22T12:56:58.660Z,125
2018-11-22T12:57:58.876Z,125
2018-11-22T12:58:58.684Z,125
2018-11-22T12:59:58.616Z,125
2018-11-22T13:00:58.380Z,120
2018-11-22T13:01:58.892Z,120
2018-11-22T13:02:58.625Z,120
2018-11-22T13:03:58.895Z,120
2018-11-22T13:04:58.605Z,120
2018-11-22T13:05:58.856Z,120
2018-11-22T13:06:58.815Z,120
2018-11-22T13:07:58.852Z,120
2018-11-22T13:08:58.801Z,120
2018-11-22T13:09:58.795Z,115
2018-11-22T13:10:58.794Z,115
2018-11-22T13:11:58.796Z,115
2018-11-22T13:12:58.539Z,115
2018-11-22T13:13:58.798Z,115
2018-11-22T13:14:58.300Z,115
2018-11-22T13:15:58.285Z,115
2018-11-22T13:16:58.763Z,115
2018-11-22T13:17:58.799Z,110
2018-11-22T13:19:04.060Z,110
2018-11-22T13:19:58.740Z,110
2018-11-22T13:20:58.313Z,110
2018-11-22T13:21:58.747Z,110
2018-11-22T13:22:58.751Z,110
2018-11-22T13:23:58.718Z,110
2018-11-22T13:24:58.491Z,105
2018-11-22T13:25:58.722Z,105
2018-11-22T13:26:59.413Z,105
2018-11-22T13:27:58.479Z,105
2018-11-22T13:28:58.457Z,105
2018-11-22T13:29:58.709Z,105
2018-11-22T13:30:58.691Z,105
2018-11-22T13:31:58.436Z,105
2018-11-22T13:32:58.671Z,100
2018-11-22T13:33:58.680Z,100
2018-11-22T13:34:58.683Z,100
2018-11-22T13:35:58.402Z,100
2018-11-22T13:36:58.679Z,100
2018-11-22T13:37:58.653Z,100
2018-11-22T13:38:58.650Z,100
2018-11-22T13:39:58.636Z,100
2018-11-22T13:40:58.668Z,95
2018-11-22T13:41:58.383Z,95
2018-11-22T13:42:58.365Z,95
2018-11-22T13:43:58.620Z,95
2018-11-22T13:44:58.134Z,95
2018-11-22T13:45:58.371Z,100
2018-11-22T13:46:58.586Z,95
2018-11-22T13:47:58.598Z,95
2018-11-22T13:48:58.584Z,95
2018-11-22T13:49:58.562Z,95
2018-11-22T13:50:58.558Z,95
2018-11-22T13:51:58.076Z,90
2018-11-22T13:52:58.573Z,90
2018-11-22T13:53:58.313Z,90
2018-11-22T13:54:58.357Z,90
2018-11-22T13:55:58.325Z,85
2018-11-22T13:56:58.278Z,85
2018-11-22T13:57:58.304Z,85
2018-11-22T13:58:58.524Z,85
2018-11-22T14:00:03.283Z,80
2018-11-22T14:00:58.281Z,80
2018-11-22T14:01:58.528Z,80
2018-11-22T14:02:58.251Z,80
2018-11-22T14:03:58.261Z,80
2018-11-22T14:04:58.500Z,80
2018-11-22T14:05:58.221Z,80
2018-11-22T14:06:58.475Z,80
2018-11-22T14:07:58.332Z,80
2018-11-22T14:08:58.456Z,75
2018-11-22T14:09:58.465Z,75
2018-11-22T14:11:02.988Z,75
2018-11-22T14:11:58.182Z,75
2018-11-22T14:12:58.419Z,75
2018-11-22T14:13:58.431Z,75
2018-11-22T14:14:58.167Z,75
2018-11-22T14:15:58.414Z,75
2018-11-22T14:16:58.719Z,70
2018-11-22T14:17:57.938Z,70